sensor_id;sensor_type;location;lat;lon;timestamp;pressure;altitude;pressure_sealevel;temperature;humidity
32320;BME280;19080;51.750;5.888;2024-01-30T00:01:55;102447.81;;;7.67;100.00
32320;BME280;19080;51.750;5.888;2024-01-30T00:04:22;102434.25;;;7.61;100.00
32320;BME280;19080;51.750;5.888;2024-01-30T00:06:50;102409.84;;;7.48;100.00
32320;BME280;19080;51.750;5.888;2024-01-30T00:09:17;102442.78;;;7.55;100.00
32320;BME280;19080;51.750;5.888;2024-01-30T00:11:44;102446.59;;;7.44;100.00
32320;BME280;19080;51.750;5.888;2024-01-30T00:14:10;102442.78;;;7.39;100.00
32320;BME280;19080;51.750;5.888;2024-01-30T00:16:37;102446.91;;;7.34;100.00
32320;BME280;19080;51.750;5.888;2024-01-30T00:19:04;102447.91;;;7.36;100.00
32320;BME280;19080;51.750;5.888;2024-01-30T00:21:30;102434.19;;;7.27;100.00
32320;BME280;19080;51.750;5.888;2024-01-30T00:23:57;102403.75;;;7.01;100.00
32320;BME280;19080;51.750;5.888;2024-01-30T00:26:24;102447.72;;;7.16;100.00
32320;BME280;19080;51.750;5.888;2024-01-30T00:28:50;102420.66;;;7.04;100.00
32320;BME280;19080;51.750;5.888;2024-01-30T00:31:17;102444.75;;;7.10;100.00
32320;BME280;19080;51.750;5.888;2024-01-30T00:33:43;102415.78;;;6.96;100.00
32320;BME280;19080;51.750;5.888;2024-01-30T00:36:10;102401.19;;;6.86;100.00
32320;BME280;19080;51.750;5.888;2024-01-30T00:38:37;102406.47;;;6.86;100.00
32320;BME280;19080;51.750;5.888;2024-01-30T00:41:04;102438.31;;;7.05;100.00
32320;BME280;19080;51.750;5.888;2024-01-30T00:43:31;102429.41;;;7.03;100.00
32320;BME280;19080;51.750;5.888;2024-01-30T00:45:59;102426.50;;;6.99;100.00
32320;BME280;19080;51.750;5.888;2024-01-30T00:48:25;102383.88;;;6.75;100.00
32320;BME280;19080;51.750;5.888;2024-01-30T00:50:52;102420.16;;;6.95;100.00
32320;BME280;19080;51.750;5.888;2024-01-30T00:53:19;102424.13;;;7.03;100.00
32320;BME280;19080;51.750;5.888;2024-01-30T00:55:46;102406.03;;;6.95;100.00
32320;BME280;19080;51.750;5.888;2024-01-30T00:58:12;102430.56;;;7.08;100.00
32320;BME280;19080;51.750;5.888;2024-01-30T01:00:39;102428.91;;;7.10;100.00
32320;BME280;19080;51.750;5.888;2024-01-30T01:03:06;102428.84;;;7.09;100.00
32320;BME280;19080;51.750;5.888;2024-01-30T01:05:33;102413.91;;;7.09;100.00
32320;BME280;19080;51.750;5.888;2024-01-30T01:07:59;102426.78;;;7.19;100.00
32320;BME280;19080;51.750;5.888;2024-01-30T01:10:26;102416.88;;;7.15;100.00
32320;BME280;19080;51.750;5.888;2024-01-30T01:12:53;102416.22;;;7.19;100.00
32320;BME280;19080;51.750;5.888;2024-01-30T01:15:20;102420.00;;;7.25;100.00
32320;BME280;19080;51.750;5.888;2024-01-30T01:17:47;102415.06;;;7.31;100.00
32320;BME280;19080;51.750;5.888;2024-01-30T01:20:13;102425.03;;;7.36;100.00
32320;BME280;19080;51.750;5.888;2024-01-30T01:22:40;102406.31;;;7.32;100.00
32320;BME280;19080;51.750;5.888;2024-01-30T01:25:08;102388.31;;;7.25;100.00
32320;BME280;19080;51.750;5.888;2024-01-30T01:27:35;102380.47;;;7.26;100.00
32320;BME280;19080;51.750;5.888;2024-01-30T01:30:09;102409.34;;;7.39;100.00
32320;BME280;19080;51.750;5.888;2024-01-30T01:32:36;102395.91;;;7.35;100.00
32320;BME280;19080;51.750;5.888;2024-01-30T01:35:03;102409.34;;;7.39;100.00
32320;BME280;19080;51.750;5.888;2024-01-30T01:37:32;102398.03;;;7.42;100.00
32320;BME280;19080;51.750;5.888;2024-01-30T01:39:59;102400.69;;;7.42;100.00
32320;BME280;19080;51.750;5.888;2024-01-30T01:42:26;102376.41;;;7.33;100.00
32320;BME280;19080;51.750;5.888;2024-01-30T01:44:53;102397.53;;;7.49;100.00
32320;BME280;19080;51.750;5.888;2024-01-30T01:47:20;102399.44;;;7.51;100.00
32320;BME280;19080;51.750;5.888;2024-01-30T01:49:47;102397.19;;;7.59;100.00
32320;BME280;19080;51.750;5.888;2024-01-30T01:52:14;102393.56;;;7.57;100.00
32320;BME280;19080;51.750;5.888;2024-01-30T01:54:42;102389.19;;;7.58;100.00
32320;BME280;19080;51.750;5.888;2024-01-30T01:57:09;102390.84;;;7.56;100.00
32320;BME280;19080;51.750;5.888;2024-01-30T01:59:36;102384.47;;;7.52;100.00
32320;BME280;19080;51.750;5.888;2024-01-30T02:02:03;102391.00;;;7.59;100.00
32320;BME280;19080;51.750;5.888;2024-01-30T02:04:31;102361.22;;;7.45;100.00
32320;BME280;19080;51.750;5.888;2024-01-30T02:06:58;102384.66;;;7.55;100.00
32320;BME280;19080;51.750;5.888;2024-01-30T02:09:25;102381.84;;;7.52;100.00
32320;BME280;19080;51.750;5.888;2024-01-30T02:11:51;102385.56;;;7.56;100.00
32320;BME280;19080;51.750;5.888;2024-01-30T02:14:19;102333.53;;;7.21;100.00
32320;BME280;19080;51.750;5.888;2024-01-30T02:16:46;102378.72;;;7.43;100.00
32320;BME280;19080;51.750;5.888;2024-01-30T02:19:12;102387.28;;;7.55;100.00
32320;BME280;19080;51.750;5.888;2024-01-30T02:21:39;102385.78;;;7.60;100.00
32320;BME280;19080;51.750;5.888;2024-01-30T02:24:06;102378.44;;;7.55;100.00
32320;BME280;19080;51.750;5.888;2024-01-30T02:26:32;102391.75;;;7.56;100.00
32320;BME280;19080;51.750;5.888;2024-01-30T02:28:59;102384.81;;;7.58;100.00
32320;BME280;19080;51.750;5.888;2024-01-30T02:31:26;102387.84;;;7.66;100.00
32320;BME280;19080;51.750;5.888;2024-01-30T02:33:53;102358.81;;;7.49;100.00
32320;BME280;19080;51.750;5.888;2024-01-30T02:36:19;102385.63;;;7.57;100.00
32320;BME280;19080;51.750;5.888;2024-01-30T02:38:46;102362.88;;;7.43;100.00
32320;BME280;19080;51.750;5.888;2024-01-30T02:41:13;102351.22;;;7.39;100.00
32320;BME280;19080;51.750;5.888;2024-01-30T02:43:40;102374.16;;;7.57;100.00
32320;BME280;19080;51.750;5.888;2024-01-30T02:46:07;102376.13;;;7.61;100.00
32320;BME280;19080;51.750;5.888;2024-01-30T02:48:33;102367.97;;;7.56;100.00
32320;BME280;19080;51.750;5.888;2024-01-30T02:51:00;102366.00;;;7.52;100.00
32320;BME280;19080;51.750;5.888;2024-01-30T02:53:27;102345.13;;;7.40;100.00
32320;BME280;19080;51.750;5.888;2024-01-30T02:55:53;102360.38;;;7.46;100.00
32320;BME280;19080;51.750;5.888;2024-01-30T02:58:20;102355.94;;;7.45;100.00
32320;BME280;19080;51.750;5.888;2024-01-30T03:00:46;102355.94;;;7.45;100.00
32320;BME280;19080;51.750;5.888;2024-01-30T03:03:13;102360.31;;;7.44;100.00
32320;BME280;19080;51.750;5.888;2024-01-30T03:05:40;102354.69;;;7.38;100.00
32320;BME280;19080;51.750;5.888;2024-01-30T03:08:06;102338.06;;;7.23;100.00
32320;BME280;19080;51.750;5.888;2024-01-30T03:10:33;102329.06;;;7.19;100.00
32320;BME280;19080;51.750;5.888;2024-01-30T03:13:00;102331.94;;;7.24;100.00
32320;BME280;19080;51.750;5.888;2024-01-30T03:15:27;102354.63;;;7.37;100.00
32320;BME280;19080;51.750;5.888;2024-01-30T03:17:53;102353.78;;;7.38;100.00
32320;BME280;19080;51.750;5.888;2024-01-30T03:20:20;102346.69;;;7.37;100.00
32320;BME280;19080;51.750;5.888;2024-01-30T03:22:47;102353.56;;;7.33;100.00
32320;BME280;19080;51.750;5.888;2024-01-30T03:25:14;102353.78;;;7.38;100.00
32320;BME280;19080;51.750;5.888;2024-01-30T03:27:40;102319.31;;;7.18;100.00
32320;BME280;19080;51.750;5.888;2024-01-30T03:30:07;102310.56;;;7.19;100.00
32320;BME280;19080;51.750;5.888;2024-01-30T03:32:34;102352.31;;;7.43;100.00
32320;BME280;19080;51.750;5.888;2024-01-30T03:35:01;102322.84;;;7.35;100.00
32320;BME280;19080;51.750;5.888;2024-01-30T03:37:28;102330.34;;;7.44;100.00
32320;BME280;19080;51.750;5.888;2024-01-30T03:39:55;102329.00;;;7.52;100.00
32320;BME280;19080;51.750;5.888;2024-01-30T03:42:21;102326.19;;;7.49;100.00
32320;BME280;19080;51.750;5.888;2024-01-30T03:44:49;102299.38;;;7.41;100.00
32320;BME280;19080;51.750;5.888;2024-01-30T03:47:18;102318.66;;;7.57;100.00
32320;BME280;19080;51.750;5.888;2024-01-30T03:49:45;102320.63;;;7.61;100.00
32320;BME280;19080;51.750;5.888;2024-01-30T03:52:12;102295.16;;;7.45;100.00
32320;BME280;19080;51.750;5.888;2024-01-30T03:54:39;102312.41;;;7.55;100.00
32320;BME280;19080;51.750;5.888;2024-01-30T03:57:05;102310.66;;;7.55;100.00
32320;BME280;19080;51.750;5.888;2024-01-30T03:59:32;102290.72;;;7.44;100.00
32320;BME280;19080;51.750;5.888;2024-01-30T04:01:59;102317.00;;;7.59;100.00
32320;BME280;19080;51.750;5.888;2024-01-30T04:04:26;102310.34;;;7.49;100.00
32320;BME280;19080;51.750;5.888;2024-01-30T04:06:53;102307.38;;;7.43;100.00
32320;BME280;19080;51.750;5.888;2024-01-30T04:09:20;102320.91;;;7.49;100.00
32320;BME280;19080;51.750;5.888;2024-01-30T04:11:46;102321.50;;;7.43;100.00
32320;BME280;19080;51.750;5.888;2024-01-30T04:14:13;102324.97;;;7.42;100.00
32320;BME280;19080;51.750;5.888;2024-01-30T04:16:40;102334.63;;;7.42;100.00
32320;BME280;19080;51.750;5.888;2024-01-30T04:19:06;102334.31;;;7.36;100.00
32320;BME280;19080;51.750;5.888;2024-01-30T04:21:33;102294.56;;;7.16;100.00
32320;BME280;19080;51.750;5.888;2024-01-30T04:24:00;102341.41;;;7.37;100.00
32320;BME280;19080;51.750;5.888;2024-01-30T04:26:26;102336.13;;;7.37;100.00
32320;BME280;19080;51.750;5.888;2024-01-30T04:28:53;102342.47;;;7.40;100.00
32320;BME280;19080;51.750;5.888;2024-01-30T04:31:20;102334.47;;;7.39;100.00
32320;BME280;19080;51.750;5.888;2024-01-30T04:33:47;102331.00;;;7.40;100.00
32320;BME280;19080;51.750;5.888;2024-01-30T04:36:13;102298.59;;;7.26;100.00
32320;BME280;19080;51.750;5.888;2024-01-30T04:38:40;102321.50;;;7.43;100.00
32320;BME280;19080;51.750;5.888;2024-01-30T04:41:07;102291.91;;;7.33;100.00
32320;BME280;19080;51.750;5.888;2024-01-30T04:43:34;102313.66;;;7.45;100.00
32320;BME280;19080;51.750;5.888;2024-01-30T04:46:00;102285.13;;;7.38;100.00
32320;BME280;19080;51.750;5.888;2024-01-30T04:48:27;102318.16;;;7.64;100.00
32320;BME280;19080;51.750;5.888;2024-01-30T04:50:54;102297.44;;;7.55;100.00
32320;BME280;19080;51.750;5.888;2024-01-30T04:53:22;102297.69;;;7.60;100.00
32320;BME280;19080;51.750;5.888;2024-01-30T04:55:49;102313.25;;;7.71;100.00
32320;BME280;19080;51.750;5.888;2024-01-30T04:58:16;102271.94;;;7.56;100.00
32320;BME280;19080;51.750;5.888;2024-01-30T05:00:42;102301.16;;;7.76;100.00
32320;BME280;19080;51.750;5.888;2024-01-30T05:03:09;102302.31;;;7.81;100.00
32320;BME280;19080;51.750;5.888;2024-01-30T05:05:36;102271.63;;;7.67;100.00
32320;BME280;19080;51.750;5.888;2024-01-30T05:08:03;102298.31;;;7.90;100.00
32320;BME280;19080;51.750;5.888;2024-01-30T05:10:29;102272.16;;;7.78;100.00
32320;BME280;19080;51.750;5.888;2024-01-30T05:12:56;102255.56;;;7.80;100.00
32320;BME280;19080;51.750;5.888;2024-01-30T05:15:23;102278.34;;;7.96;100.00
32320;BME280;19080;51.750;5.888;2024-01-30T05:17:50;102266.72;;;7.93;100.00
32320;BME280;19080;51.750;5.888;2024-01-30T05:20:16;102289.38;;;8.05;100.00
32320;BME280;19080;51.750;5.888;2024-01-30T05:22:43;102288.47;;;8.05;100.00
32320;BME280;19080;51.750;5.888;2024-01-30T05:25:15;102291.19;;;8.06;100.00
32320;BME280;19080;51.750;5.888;2024-01-30T05:27:41;102261.97;;;7.86;100.00
32320;BME280;19080;51.750;5.888;2024-01-30T05:30:09;102299.06;;;8.05;100.00
32320;BME280;19080;51.750;5.888;2024-01-30T05:32:35;102295.50;;;8.04;100.00
32320;BME280;19080;51.750;5.888;2024-01-30T05:35:02;102312.72;;;8.14;100.00
32320;BME280;19080;51.750;5.888;2024-01-30T05:37:29;102297.53;;;8.10;100.00
32320;BME280;19080;51.750;5.888;2024-01-30T05:39:56;102303.81;;;8.12;100.00
32320;BME280;19080;51.750;5.888;2024-01-30T05:42:23;102312.03;;;8.18;100.00
32320;BME280;19080;51.750;5.888;2024-01-30T05:44:49;102297.69;;;8.13;100.00
32320;BME280;19080;51.750;5.888;2024-01-30T05:47:16;102298.66;;;8.15;100.00
32320;BME280;19080;51.750;5.888;2024-01-30T05:49:43;102307.66;;;8.19;100.00
32320;BME280;19080;51.750;5.888;2024-01-30T05:52:09;102282.34;;;8.06;100.00
32320;BME280;19080;51.750;5.888;2024-01-30T05:54:36;102289.69;;;8.11;100.00
32320;BME280;19080;51.750;5.888;2024-01-30T05:57:03;102306.13;;;8.24;100.00
32320;BME280;19080;51.750;5.888;2024-01-30T05:59:29;102277.06;;;8.06;100.00
32320;BME280;19080;51.750;5.888;2024-01-30T06:01:56;102307.34;;;8.30;100.00
32320;BME280;19080;51.750;5.888;2024-01-30T06:04:23;102297.38;;;8.25;100.00
32320;BME280;19080;51.750;5.888;2024-01-30T06:06:50;102295.47;;;8.22;100.00
32320;BME280;19080;51.750;5.888;2024-01-30T06:09:17;102298.41;;;8.28;100.00
32320;BME280;19080;51.750;5.888;2024-01-30T06:11:45;102297.59;;;8.29;100.00
32320;BME280;19080;51.750;5.888;2024-01-30T06:14:12;102299.66;;;8.35;100.00
32320;BME280;19080;51.750;5.888;2024-01-30T06:16:38;102289.97;;;8.35;100.00
32320;BME280;19080;51.750;5.888;2024-01-30T06:19:05;102277.41;;;8.31;100.00
32320;BME280;19080;51.750;5.888;2024-01-30T06:21:32;102301.13;;;8.47;100.00
32320;BME280;19080;51.750;5.888;2024-01-30T06:24:03;102293.06;;;8.44;100.00
32320;BME280;19080;51.750;5.888;2024-01-30T06:26:29;102297.81;;;8.52;100.00
32320;BME280;19080;51.750;5.888;2024-01-30T06:28:56;102308.13;;;8.65;100.00
32320;BME280;19080;51.750;5.888;2024-01-30T06:31:23;102296.69;;;8.66;100.00
32320;BME280;19080;51.750;5.888;2024-01-30T06:33:50;102289.47;;;8.62;100.00
32320;BME280;19080;51.750;5.888;2024-01-30T06:36:17;102274.19;;;8.56;100.00
32320;BME280;19080;51.750;5.888;2024-01-30T06:38:44;102290.69;;;8.70;100.00
32320;BME280;19080;51.750;5.888;2024-01-30T06:41:10;102279.84;;;8.64;100.00
32320;BME280;19080;51.750;5.888;2024-01-30T06:43:37;102286.22;;;8.69;100.00
32320;BME280;19080;51.750;5.888;2024-01-30T06:46:04;102305.25;;;8.79;100.00
32320;BME280;19080;51.750;5.888;2024-01-30T06:48:30;102298.91;;;8.76;100.00
32320;BME280;19080;51.750;5.888;2024-01-30T06:50:57;102307.06;;;8.80;100.00
32320;BME280;19080;51.750;5.888;2024-01-30T06:53:24;102278.03;;;8.63;100.00
32320;BME280;19080;51.750;5.888;2024-01-30T06:55:52;102315.97;;;8.82;100.00
32320;BME280;19080;51.750;5.888;2024-01-30T06:58:19;102285.97;;;8.63;100.00
32320;BME280;19080;51.750;5.888;2024-01-30T07:00:46;102302.09;;;8.69;100.00
32320;BME280;19080;51.750;5.888;2024-01-30T07:03:12;102284.03;;;8.59;100.00
32320;BME280;19080;51.750;5.888;2024-01-30T07:05:39;102328.84;;;8.75;100.00
32320;BME280;19080;51.750;5.888;2024-01-30T07:08:06;102330.25;;;8.67;100.00
32320;BME280;19080;51.750;5.888;2024-01-30T07:10:33;102322.88;;;8.60;100.00
32320;BME280;19080;51.750;5.888;2024-01-30T07:13:01;102334.59;;;8.65;100.00
32320;BME280;19080;51.750;5.888;2024-01-30T07:15:27;102328.19;;;8.60;100.00
32320;BME280;19080;51.750;5.888;2024-01-30T07:17:54;102328.19;;;8.60;100.00
32320;BME280;19080;51.750;5.888;2024-01-30T07:20:20;102338.91;;;8.63;100.00
32320;BME280;19080;51.750;5.888;2024-01-30T07:22:47;102338.31;;;8.70;100.00
32320;BME280;19080;51.750;5.888;2024-01-30T07:25:14;102343.63;;;8.70;100.00
32320;BME280;19080;51.750;5.888;2024-01-30T07:27:41;102339.22;;;8.70;100.00
32320;BME280;19080;51.750;5.888;2024-01-30T07:30:08;102355.94;;;8.69;100.00
32320;BME280;19080;51.750;5.888;2024-01-30T07:32:35;102356.38;;;8.78;100.00
32320;BME280;19080;51.750;5.888;2024-01-30T07:35:02;102354.22;;;8.70;100.00
32320;BME280;19080;51.750;5.888;2024-01-30T07:37:34;102324.25;;;8.52;100.00
32320;BME280;19080;51.750;5.888;2024-01-30T07:40:02;102360.28;;;8.67;100.00
32320;BME280;19080;51.750;5.888;2024-01-30T07:42:30;102356.94;;;8.71;100.00
32320;BME280;19080;51.750;5.888;2024-01-30T07:44:57;102372.28;;;8.78;100.00
32320;BME280;19080;51.750;5.888;2024-01-30T07:47:23;102367.53;;;8.71;100.00
32320;BME280;19080;51.750;5.888;2024-01-30T07:49:50;102342.53;;;8.65;100.00
32320;BME280;19080;51.750;5.888;2024-01-30T07:52:18;102346.41;;;8.73;100.00
32320;BME280;19080;51.750;5.888;2024-01-30T07:54:47;102355.75;;;8.84;100.00
32320;BME280;19080;51.750;5.888;2024-01-30T07:57:14;102347.59;;;8.79;100.00
32320;BME280;19080;51.750;5.888;2024-01-30T07:59:44;102361.63;;;8.96;100.00
32320;BME280;19080;51.750;5.888;2024-01-30T08:02:12;102373.34;;;9.01;100.00
32320;BME280;19080;51.750;5.888;2024-01-30T08:04:39;102348.31;;;8.95;100.00
32320;BME280;19080;51.750;5.888;2024-01-30T08:07:06;102340.28;;;8.93;100.00
32320;BME280;19080;51.750;5.888;2024-01-30T08:09:32;102374.72;;;9.12;100.00
32320;BME280;19080;51.750;5.888;2024-01-30T08:11:59;102392.56;;;9.17;100.00
32320;BME280;19080;51.750;5.888;2024-01-30T08:14:26;102389.09;;;9.18;100.00
32320;BME280;19080;51.750;5.888;2024-01-30T08:16:53;102386.44;;;9.18;100.00
32320;BME280;19080;51.750;5.888;2024-01-30T08:19:19;102395.66;;;9.26;100.00
32320;BME280;19080;51.750;5.888;2024-01-30T08:21:46;102396.63;;;9.28;100.00
32320;BME280;19080;51.750;5.888;2024-01-30T08:24:13;102383.66;;;9.34;100.00
32320;BME280;19080;51.750;5.888;2024-01-30T08:26:40;102366.00;;;9.34;100.00
32320;BME280;19080;51.750;5.888;2024-01-30T08:29:06;102398.25;;;9.64;100.00
32320;BME280;19080;51.750;5.888;2024-01-30T08:31:33;102399.56;;;9.74;100.00
32320;BME280;19080;51.750;5.888;2024-01-30T08:34:00;102396.47;;;9.84;100.00
32320;BME280;19080;51.750;5.888;2024-01-30T08:36:27;102398.94;;;9.79;100.00
32320;BME280;19080;51.750;5.888;2024-01-30T08:38:54;102395.56;;;9.84;100.00
32320;BME280;19080;51.750;5.888;2024-01-30T08:41:27;102393.88;;;9.86;100.00
32320;BME280;19080;51.750;5.888;2024-01-30T08:43:53;102399.38;;;9.90;100.00
32320;BME280;19080;51.750;5.888;2024-01-30T08:46:20;102391.56;;;9.93;100.00
32320;BME280;19080;51.750;5.888;2024-01-30T08:48:47;102365.81;;;9.91;100.00
32320;BME280;19080;51.750;5.888;2024-01-30T08:51:14;102394.94;;;10.10;100.00
32320;BME280;19080;51.750;5.888;2024-01-30T08:53:42;102376.81;;;10.00;100.00
32320;BME280;19080;51.750;5.888;2024-01-30T08:56:08;102375.50;;;10.11;100.00
32320;BME280;19080;51.750;5.888;2024-01-30T08:58:35;102390.16;;;10.22;100.00
32320;BME280;19080;51.750;5.888;2024-01-30T09:01:02;102393.00;;;10.27;100.00
32320;BME280;19080;51.750;5.888;2024-01-30T09:03:30;102379.69;;;10.25;100.00
32320;BME280;19080;51.750;5.888;2024-01-30T09:05:57;102389.94;;;10.38;100.00
32320;BME280;19080;51.750;5.888;2024-01-30T09:08:23;102388.66;;;10.51;100.00
32320;BME280;19080;51.750;5.888;2024-01-30T09:10:50;102379.31;;;10.61;100.00
32320;BME280;19080;51.750;5.888;2024-01-30T09:13:17;102372.44;;;10.66;100.00
32320;BME280;19080;51.750;5.888;2024-01-30T09:15:44;102381.84;;;10.80;100.00
32320;BME280;19080;51.750;5.888;2024-01-30T09:18:10;102386.13;;;10.99;100.00
32320;BME280;19080;51.750;5.888;2024-01-30T09:20:37;102390.88;;;11.07;100.00
32320;BME280;19080;51.750;5.888;2024-01-30T09:23:04;102394.00;;;11.20;100.00
32320;BME280;19080;51.750;5.888;2024-01-30T09:25:31;102404.97;;;11.29;100.00
32320;BME280;19080;51.750;5.888;2024-01-30T09:27:58;102400.09;;;11.41;100.00
32320;BME280;19080;51.750;5.888;2024-01-30T09:30:25;102401.28;;;11.49;100.00
32320;BME280;19080;51.750;5.888;2024-01-30T09:32:52;102401.50;;;11.55;100.00
32320;BME280;19080;51.750;5.888;2024-01-30T09:35:18;102397.25;;;11.60;100.00
32320;BME280;19080;51.750;5.888;2024-01-30T09:37:45;102380.00;;;11.49;100.00
32320;BME280;19080;51.750;5.888;2024-01-30T09:40:12;102401.09;;;11.68;100.00
32320;BME280;19080;51.750;5.888;2024-01-30T09:42:40;102406.63;;;11.74;100.00
32320;BME280;19080;51.750;5.888;2024-01-30T09:45:06;102406.88;;;11.81;100.00
32320;BME280;19080;51.750;5.888;2024-01-30T09:47:40;102407.06;;;11.85;100.00
32320;BME280;19080;51.750;5.888;2024-01-30T09:50:12;102412.69;;;11.94;100.00
32320;BME280;19080;51.750;5.888;2024-01-30T09:52:39;102386.72;;;11.87;100.00
32320;BME280;19080;51.750;5.888;2024-01-30T09:55:07;102406.72;;;12.01;100.00
32320;BME280;19080;51.750;5.888;2024-01-30T09:57:34;102382.41;;;11.91;100.00
32320;BME280;19080;51.750;5.888;2024-01-30T10:00:05;102413.06;;;12.05;100.00
32320;BME280;19080;51.750;5.888;2024-01-30T10:02:39;102386.13;;;11.96;100.00
32320;BME280;19080;51.750;5.888;2024-01-30T10:05:05;102410.50;;;12.08;100.00
32320;BME280;19080;51.750;5.888;2024-01-30T10:07:32;102410.56;;;12.10;100.00
32320;BME280;19080;51.750;5.888;2024-01-30T10:09:59;102392.41;;;11.98;100.00
32320;BME280;19080;51.750;5.888;2024-01-30T10:12:26;102389.84;;;12.01;100.00
32320;BME280;19080;51.750;5.888;2024-01-30T10:14:56;102390.91;;;12.06;100.00
32320;BME280;19080;51.750;5.888;2024-01-30T10:17:25;102417.47;;;12.31;100.00
32320;BME280;19080;51.750;5.888;2024-01-30T10:19:59;102415.00;;;12.37;100.00
32320;BME280;19080;51.750;5.888;2024-01-30T10:22:26;102410.63;;;12.39;100.00
32320;BME280;19080;51.750;5.888;2024-01-30T10:24:53;102412.34;;;12.37;100.00
32320;BME280;19080;51.750;5.888;2024-01-30T10:27:26;102400.53;;;12.29;100.00
32320;BME280;19080;51.750;5.888;2024-01-30T10:29:53;102424.25;;;12.49;100.00
32320;BME280;19080;51.750;5.888;2024-01-30T10:32:20;102420.59;;;12.45;100.00
32320;BME280;19080;51.750;5.888;2024-01-30T10:34:47;102422.66;;;12.54;100.00
32320;BME280;19080;51.750;5.888;2024-01-30T10:37:15;102420.34;;;12.64;100.00
32320;BME280;19080;51.750;5.888;2024-01-30T10:39:45;102420.28;;;12.63;100.00
32320;BME280;19080;51.750;5.888;2024-01-30T10:42:17;102413.06;;;12.59;100.00
32320;BME280;19080;51.750;5.888;2024-01-30T10:47:18;102424.75;;;12.64;100.00
32320;BME280;19080;51.750;5.888;2024-01-30T10:49:47;102417.81;;;12.69;100.00
32320;BME280;19080;51.750;5.888;2024-01-30T10:52:16;102399.91;;;12.65;100.00
32320;BME280;19080;51.750;5.888;2024-01-30T10:54:44;102403.53;;;12.67;100.00
32320;BME280;19080;51.750;5.888;2024-01-30T10:57:12;102395.75;;;12.73;100.00
32320;BME280;19080;51.750;5.888;2024-01-30T10:59:39;102420.16;;;12.87;100.00
32320;BME280;19080;51.750;5.888;2024-01-30T11:02:07;102399.75;;;12.87;100.00
32320;BME280;19080;51.750;5.888;2024-01-30T11:04:40;102427.09;;;13.10;100.00
32320;BME280;19080;51.750;5.888;2024-01-30T11:07:14;102404.22;;;13.17;100.00
32320;BME280;19080;51.750;5.888;2024-01-30T11:09:49;102427.13;;;13.40;100.00
32320;BME280;19080;51.750;5.888;2024-01-30T11:12:24;102429.94;;;13.45;100.00
32320;BME280;19080;51.750;5.888;2024-01-30T11:15:12;102425.19;;;13.34;100.00
32320;BME280;19080;51.750;5.888;2024-01-30T11:22:51;102430.44;;;13.31;100.00
32320;BME280;19080;51.750;5.888;2024-01-30T11:25:23;102424.06;;;13.26;100.00
32320;BME280;19080;51.750;5.888;2024-01-30T11:27:54;102426.00;;;13.32;100.00
32320;BME280;19080;51.750;5.888;2024-01-30T11:30:29;102399.09;;;13.24;100.00
32320;BME280;19080;51.750;5.888;2024-01-30T11:33:08;102430.53;;;13.34;100.00
32320;BME280;19080;51.750;5.888;2024-01-30T11:35:42;102399.84;;;13.19;100.00
32320;BME280;19080;51.750;5.888;2024-01-30T11:38:11;102430.44;;;13.31;100.00
32320;BME280;19080;51.750;5.888;2024-01-30T11:40:40;102396.84;;;13.10;100.00
32320;BME280;19080;51.750;5.888;2024-01-30T11:43:08;102425.63;;;13.20;100.00
32320;BME280;19080;51.750;5.888;2024-01-30T11:45:36;102401.91;;;13.00;100.00
32320;BME280;19080;51.750;5.888;2024-01-30T11:48:03;102381.75;;;12.80;100.00
32320;BME280;19080;51.750;5.888;2024-01-30T11:50:32;102420.22;;;13.17;100.00
32320;BME280;19080;51.750;5.888;2024-01-30T11:53:00;102417.91;;;13.29;100.00
32320;BME280;19080;51.750;5.888;2024-01-30T11:55:29;102402.59;;;13.22;100.00
32320;BME280;19080;51.750;5.888;2024-01-30T11:58:00;102419.75;;;13.31;100.00
32320;BME280;19080;51.750;5.888;2024-01-30T12:00:27;102408.56;;;13.15;100.00
32320;BME280;19080;51.750;5.888;2024-01-30T12:02:55;102411.44;;;13.21;100.00
32320;BME280;19080;51.750;5.888;2024-01-30T12:05:26;102427.13;;;13.40;100.00
32320;BME280;19080;51.750;5.888;2024-01-30T12:07:53;102426.34;;;13.44;100.00
32320;BME280;19080;51.750;5.888;2024-01-30T12:10:21;102434.19;;;13.38;100.00
32320;BME280;19080;51.750;5.888;2024-01-30T12:12:49;102441.06;;;13.30;100.00
32320;BME280;19080;51.750;5.888;2024-01-30T12:15:18;102437.38;;;13.56;100.00
32320;BME280;19080;51.750;5.888;2024-01-30T12:17:45;102430.19;;;13.85;100.00
32320;BME280;19080;51.750;5.888;2024-01-30T12:20:13;102417.38;;;13.72;100.00
32320;BME280;19080;51.750;5.888;2024-01-30T12:22:46;102425.78;;;14.22;100.00
32320;BME280;19080;51.750;5.888;2024-01-30T12:25:15;102428.88;;;14.39;100.00
32320;BME280;19080;51.750;5.888;2024-01-30T12:27:47;102420.63;;;14.64;100.00
32320;BME280;19080;51.750;5.888;2024-01-30T12:30:20;102416.91;;;14.96;100.00
32320;BME280;19080;51.750;5.888;2024-01-30T12:32:50;102399.59;;;14.79;100.00
32320;BME280;19080;51.750;5.888;2024-01-30T12:35:18;102421.84;;;14.78;100.00
32320;BME280;19080;51.750;5.888;2024-01-30T12:37:47;102398.13;;;14.54;100.00
32320;BME280;19080;51.750;5.888;2024-01-30T12:40:14;102428.94;;;14.76;100.00
32320;BME280;19080;51.750;5.888;2024-01-30T12:42:46;102433.47;;;14.80;100.00
32320;BME280;19080;51.750;5.888;2024-01-30T12:45:15;102428.47;;;14.56;100.00
32320;BME280;19080;51.750;5.888;2024-01-30T12:47:42;102442.75;;;14.58;100.00
32320;BME280;19080;51.750;5.888;2024-01-30T12:50:09;102438.97;;;14.49;100.00
32320;BME280;19080;51.750;5.888;2024-01-30T12:52:36;102441.56;;;14.46;100.00
32320;BME280;19080;51.750;5.888;2024-01-30T12:55:04;102446.56;;;14.33;100.00
32320;BME280;19080;51.750;5.888;2024-01-30T12:57:31;102439.63;;;14.07;100.00